sensor_id;sensor_type;location;lat;lon;timestamp;temperature;humidity
41985;DHT22;28319;48.116;10.818;2023-02-28T00:00:35;-2.20;99.90
41985;DHT22;28319;48.116;10.818;2023-02-28T00:05:37;-2.20;99.90
41985;DHT22;28319;48.116;10.818;2023-02-28T00:10:39;-2.20;99.90
41985;DHT22;28319;48.116;10.818;2023-02-28T00:15:43;-1.60;99.90
41985;DHT22;28319;48.116;10.818;2023-02-28T00:20:45;-2.30;99.90
41985;DHT22;28319;48.116;10.818;2023-02-28T00:25:47;-1.20;99.90
41985;DHT22;28319;48.116;10.818;2023-02-28T00:30:51;-2.30;99.90
41985;DHT22;28319;48.116;10.818;2023-02-28T00:36:01;-2.30;99.90
41985;DHT22;28319;48.116;10.818;2023-02-28T00:41:04;-2.30;99.90
41985;DHT22;28319;48.116;10.818;2023-02-28T00:46:08;-2.40;99.90
41985;DHT22;28319;48.116;10.818;2023-02-28T00:51:10;-2.40;99.90
41985;DHT22;28319;48.116;10.818;2023-02-28T00:56:12;-2.50;99.90
41985;DHT22;28319;48.116;10.818;2023-02-28T01:01:15;-2.50;99.90
41985;DHT22;28319;48.116;10.818;2023-02-28T01:06:17;-2.50;99.90
41985;DHT22;28319;48.116;10.818;2023-02-28T01:11:19;-2.50;99.90
41985;DHT22;28319;48.116;10.818;2023-02-28T01:16:23;-2.60;99.90
41985;DHT22;28319;48.116;10.818;2023-02-28T01:21:25;-2.60;99.90
41985;DHT22;28319;48.116;10.818;2023-02-28T01:26:27;-2.20;99.90
41985;DHT22;28319;48.116;10.818;2023-02-28T01:31:30;-2.60;99.90
41985;DHT22;28319;48.116;10.818;2023-02-28T01:36:32;-2.60;99.90
41985;DHT22;28319;48.116;10.818;2023-02-28T01:41:35;-2.60;99.90
41985;DHT22;28319;48.116;10.818;2023-02-28T01:46:38;-2.60;99.90
41985;DHT22;28319;48.116;10.818;2023-02-28T01:51:43;-2.60;99.90
41985;DHT22;28319;48.116;10.818;2023-02-28T01:56:49;-2.60;99.90
41985;DHT22;28319;48.116;10.818;2023-02-28T02:01:54;-2.70;99.90
41985;DHT22;28319;48.116;10.818;2023-02-28T02:06:58;-2.70;99.90
41985;DHT22;28319;48.116;10.818;2023-02-28T02:12:10;-2.40;99.90
41985;DHT22;28319;48.116;10.818;2023-02-28T02:17:32;-2.70;99.90
41985;DHT22;28319;48.116;10.818;2023-02-28T02:34:16;-2.90;99.90
41985;DHT22;28319;48.116;10.818;2023-02-28T02:39:29;-2.60;99.90
41985;DHT22;28319;48.116;10.818;2023-02-28T02:44:37;-2.90;99.90
41985;DHT22;28319;48.116;10.818;2023-02-28T02:49:52;-2.90;99.90
41985;DHT22;28319;48.116;10.818;2023-02-28T02:54:57;-2.70;99.90
41985;DHT22;28319;48.116;10.818;2023-02-28T03:00:05;-1.50;99.90
41985;DHT22;28319;48.116;10.818;2023-02-28T03:05:20;-3.10;99.90
41985;DHT22;28319;48.116;10.818;2023-02-28T03:10:32;-3.10;99.90
41985;DHT22;28319;48.116;10.818;2023-02-28T03:15:46;-3.10;99.90
41985;DHT22;28319;48.116;10.818;2023-02-28T03:21:03;-3.20;99.90
41985;DHT22;28319;48.116;10.818;2023-02-28T03:26:16;-3.20;99.90
41985;DHT22;28319;48.116;10.818;2023-02-28T03:31:24;-3.30;99.90
41985;DHT22;28319;48.116;10.818;2023-02-28T03:36:36;-3.40;99.90
41985;DHT22;28319;48.116;10.818;2023-02-28T03:41:49;-3.10;99.90
41985;DHT22;28319;48.116;10.818;2023-02-28T03:47:06;-2.10;99.90
41985;DHT22;28319;48.116;10.818;2023-02-28T03:52:13;-3.40;99.90
41985;DHT22;28319;48.116;10.818;2023-02-28T03:57:22;-3.40;99.90
41985;DHT22;28319;48.116;10.818;2023-02-28T04:02:25;-3.60;99.90
41985;DHT22;28319;48.116;10.818;2023-02-28T04:07:30;-3.50;99.90
41985;DHT22;28319;48.116;10.818;2023-02-28T04:12:33;-3.50;99.90
41985;DHT22;28319;48.116;10.818;2023-02-28T04:17:35;-3.60;99.90
41985;DHT22;28319;48.116;10.818;2023-02-28T04:22:38;-3.20;99.90
41985;DHT22;28319;48.116;10.818;2023-02-28T04:27:40;-3.60;99.90
41985;DHT22;28319;48.116;10.818;2023-02-28T04:32:45;-3.60;99.90
41985;DHT22;28319;48.116;10.818;2023-02-28T04:37:48;-3.60;99.90
41985;DHT22;28319;48.116;10.818;2023-02-28T04:42:50;-3.50;99.90
41985;DHT22;28319;48.116;10.818;2023-02-28T04:47:52;-3.50;99.90
41985;DHT22;28319;48.116;10.818;2023-02-28T04:52:56;-3.40;99.90
41985;DHT22;28319;48.116;10.818;2023-02-28T04:57:58;-3.40;99.90
41985;DHT22;28319;48.116;10.818;2023-02-28T05:03:00;-3.40;99.90
41985;DHT22;28319;48.116;10.818;2023-02-28T05:08:04;-3.40;99.90
41985;DHT22;28319;48.116;10.818;2023-02-28T05:13:06;-3.30;99.90
41985;DHT22;28319;48.116;10.818;2023-02-28T05:18:08;-3.30;99.90
41985;DHT22;28319;48.116;10.818;2023-02-28T05:23:12;-3.20;99.90
41985;DHT22;28319;48.116;10.818;2023-02-28T05:28:14;-3.30;99.90
41985;DHT22;28319;48.116;10.818;2023-02-28T05:33:16;-3.20;99.90
41985;DHT22;28319;48.116;10.818;2023-02-28T05:38:20;-2.90;99.90
41985;DHT22;28319;48.116;10.818;2023-02-28T05:43:22;-3.20;99.90
41985;DHT22;28319;48.116;10.818;2023-02-28T05:48:24;-3.10;99.90
41985;DHT22;28319;48.116;10.818;2023-02-28T05:53:28;-3.10;99.90
41985;DHT22;28319;48.116;10.818;2023-02-28T05:58:31;-3.10;99.90
41985;DHT22;28319;48.116;10.818;2023-02-28T06:03:33;-2.90;99.90
41985;DHT22;28319;48.116;10.818;2023-02-28T06:08:36;-3.00;99.90
41985;DHT22;28319;48.116;10.818;2023-02-28T06:13:38;-2.90;99.90
41985;DHT22;28319;48.116;10.818;2023-02-28T06:18:40;-2.90;99.90
41985;DHT22;28319;48.116;10.818;2023-02-28T06:23:43;-2.80;99.90
41985;DHT22;28319;48.116;10.818;2023-02-28T06:28:46;-2.80;99.90
41985;DHT22;28319;48.116;10.818;2023-02-28T06:33:48;-2.80;99.90
41985;DHT22;28319;48.116;10.818;2023-02-28T06:38:52;-2.70;99.90
41985;DHT22;28319;48.116;10.818;2023-02-28T06:43:56;-2.70;99.90
